sim
Sign-in with your pilot id or email,
or register
Callsign
Passwort

Schedule Details

Flight Number: DLH1803
Departure: Madrid Barajas Airport (LEMD) at 14:25
Arrival: Munich Airport (EDDM) at 17:00
Route: Lufthansa Passenger Schedule. Enter filed route here before submitting Pirep.

Weather Information
Getting current METAR information for LEMD 222100Z 26007KT CAVOK 21/12 Q1015 NOSIG
Getting current METAR information for EDDM 222050Z 27004KT CAVOK 15/14 Q1010 NOSIG

Schedule Frequency

Route Map